WetterOnline ( https://www.wetteronline.at )

Wetter aktuell Berlin

Aktuelles Wetter: Berlin-Tempelhof (49m)

6-stündlich | Neueste Meldungen
Ortszeit Temperatur Wetter
Fr, 03.02. 7:00 5.6° C bedeckt
Fr, 03.02. 1:00 1.7° C bedeckt
Do, 02.02. 19:00 1.4° C bedeckt
Do, 02.02. 13:00 6.9° C wolkig
Do, 02.02. 7:00 4.7° C bedeckt
Do, 02.02. 1:00 4.3° C wolkig
Mi, 01.02. 19:00 3.6° C leichter Regen
Mi, 01.02. 13:00 5.7° C bedeckt
Ortszeit Temperatur Wetter
Fr, 03.02. 7:00 5.6° C bedeckt
Fr, 03.02. 6:50 5.6° C bedeckt
Fr, 03.02. 6:40 5.2° C Sprühregen
Fr, 03.02. 6:30 4.5° C bedeckt
Fr, 03.02. 6:20 4.5° C bedeckt
Fr, 03.02. 6:10 4.2° C bedeckt
Fr, 03.02. 6:00 3.6° C leichter Regen
Fr, 03.02. 5:30 2.8° C Sprühregen
Fr, 03.02. 5:00 2.2° C leichter Regen
Fr, 03.02. 4:30 1.9° C leichter Regen
Fr, 03.02. 4:00 1.9° C leichter Regen
Ortszeit Relative Feuchte Sichtweite
Fr, 03.02. 7:00 96% 14 km
Fr, 03.02. 1:00 88% 35 km
Do, 02.02. 19:00 77% 55 km
Do, 02.02. 13:00 66% 45 km
Do, 02.02. 7:00 83% 40 km
Do, 02.02. 1:00 80% 30 km
Mi, 01.02. 19:00 89% 30 km
Mi, 01.02. 13:00 83% 40 km
Ortszeit Relative Feuchte Sichtweite
Fr, 03.02. 7:00 96% 14 km
Fr, 03.02. 6:50 96% -
Fr, 03.02. 6:40 97% -
Fr, 03.02. 6:30 97% 14 km
Fr, 03.02. 6:20 97% -
Fr, 03.02. 6:10 97% -
Fr, 03.02. 6:00 97% 14 km
Fr, 03.02. 5:30 97% 15 km
Fr, 03.02. 5:00 96% 7 km
Fr, 03.02. 4:30 96% 4.6 km
Fr, 03.02. 4:00 95% 15 km
Ortszeit Niederschlagsmenge Niederschlagsart
Fr, 03.02. 7:00 4 l/m2 in 12 Std. Regen
Fr, 03.02. 1:00 0.0 l/m2 in 6 Std. -
Do, 02.02. 19:00 0.3 l/m2 in 12 Std. Regen
Do, 02.02. 13:00 0.1 l/m2 in 6 Std. Regen
Do, 02.02. 7:00 0.2 l/m2 in 12 Std. Regen
Do, 02.02. 1:00 0.1 l/m2 in 6 Std. Regen
Mi, 01.02. 19:00 7 l/m2 in 12 Std. Regen
Mi, 01.02. 13:00 2 l/m2 in 6 Std. Regen
Ortszeit Niederschlagsmenge Niederschlagsart
Fr, 03.02. 7:00 <0.05 l/m2 in 1 Std. Regen
Fr, 03.02. 6:50 keine Meldung -
Fr, 03.02. 6:40 keine Meldung -
Fr, 03.02. 6:30 <0.05 l/m2 in 30 Min Schneeregen
Fr, 03.02. 6:20 keine Meldung -
Fr, 03.02. 6:10 keine Meldung -
Fr, 03.02. 6:00 0.1 l/m2 in 1 Std. Regen
Fr, 03.02. 5:30 0.1 l/m2 in 30 Min -
Fr, 03.02. 5:00 1.3 l/m2 in 1 Std. Regen
Fr, 03.02. 4:30 0.7 l/m2 in 30 Min -
Fr, 03.02. 4:00 1.3 l/m2 in 1 Std. Regen
Ortszeit Stärke Spitze Richtung
km/h Bft. km/h Grad Sektor
Fr, 03.02. 7:00 13 3 28 240° SW
Fr, 03.02. 1:00 7 2 11 180° S
Do, 02.02. 19:00 7 2 50 310° NW
Do, 02.02. 13:00 31 5 57 300° NW
Do, 02.02. 7:00 31 5 65 290° W
Do, 02.02. 1:00 31 5 52 270° W
Mi, 01.02. 19:00 26 4 72 280° W
Mi, 01.02. 13:00 25 4 50 270° W
Ortszeit Stärke Spitze Richtung
km/h Bft. km/h Grad Sektor
Fr, 03.02. 7:00 13 3 28 240° SW
Fr, 03.02. 6:50 13 3 - 240° SW
Fr, 03.02. 6:40 13 3 - 240° SW
Fr, 03.02. 6:30 11 2 29 240° SW
Fr, 03.02. 6:20 11 2 - 240° SW
Fr, 03.02. 6:10 11 2 - 240° SW
Fr, 03.02. 6:00 13 3 22 230° SW
Fr, 03.02. 5:30 13 3 22 230° SW
Fr, 03.02. 5:00 13 3 26 190° S
Fr, 03.02. 4:30 11 2 26 180° S
Fr, 03.02. 4:00 15 3 26 190° S
Ortszeit Untergrenze Bedeckung Gattung
total tief tief mittel hoch
Fr, 03.02. 7:00 270 m 8/8 8/8 - - -
Fr, 03.02. 1:00 1800 m 8/8 8/8 - - -
Do, 02.02. 19:00 6000 m 8/8 8/8 - - -
Do, 02.02. 13:00 870 m 6/8 6/8 - - -
Do, 02.02. 7:00 570 m 8/8 8/8 - - -
Do, 02.02. 1:00 600 m 6/8 4/8 - - -
Mi, 01.02. 19:00 390 m 8/8 8/8 - - -
Mi, 01.02. 13:00 600 m 8/8 8/8 - - -
Ortszeit Bedeckungsgrad in Achtel und Wolkenuntergrenze
Fr, 03.02. 7:00 6(270m) 7(690m) 8(1080m)
Fr, 03.02. 6:50 6(270m) 7(690m) 8(1080m)
Fr, 03.02. 6:40 8
Fr, 03.02. 6:30 8(210m) 8(660m)
Fr, 03.02. 6:20 8(210m) 8(660m)
Fr, 03.02. 6:10 8
Fr, 03.02. 6:00 7(120m)
Fr, 03.02. 5:30 7(120m)
Fr, 03.02. 5:00 8(120m)
Fr, 03.02. 4:30 7(150m)
Fr, 03.02. 4:00 7(180m)
Ortszeit Luftdruck NN (hPa) Tendenz (hPa in 3 Std.)
Fr, 03.02. 7:00 1014 - 3,5
Fr, 03.02. 1:00 1022 - 1,3
Do, 02.02. 19:00 1023 + 3,5
Do, 02.02. 13:00 1016 + 2,0
Do, 02.02. 7:00 1012 + 3,2
Do, 02.02. 1:00 1008 - 0,6
Mi, 01.02. 19:00 1008 + 0,9
Mi, 01.02. 13:00 1009 + 0,4
Ortszeit Luftdruck NN (hPa) Tendenz (hPa in 3 Std.)
Fr, 03.02. 7:00 1014 - 3,5
Fr, 03.02. 6:50 1014 keine Meldung
Fr, 03.02. 6:40 1014 keine Meldung
Fr, 03.02. 6:30 1015 - 4,1
Fr, 03.02. 6:20 1015 keine Meldung
Fr, 03.02. 6:10 1015 keine Meldung
Fr, 03.02. 6:00 1015 - 4,5
Fr, 03.02. 5:30 1016 - 4,4
Fr, 03.02. 5:00 1017 - 4,0
Fr, 03.02. 4:30 1017 - 4,2
Fr, 03.02. 4:00 1018 - 4,1
Ortszeit Schneehöhe (cm)
Fr, 03.02. 7:00 0
Fr, 03.02. 1:00 0
Do, 02.02. 19:00 0
Do, 02.02. 13:00 0
Do, 02.02. 7:00 0
Do, 02.02. 1:00 0
Mi, 01.02. 19:00 0
Mi, 01.02. 13:00 0
Ortszeit Schneehöhe (cm)
Fr, 03.02. 7:00 0
Fr, 03.02. 6:50 0
Fr, 03.02. 6:40 0
Fr, 03.02. 6:30 0
Fr, 03.02. 6:20 0
Fr, 03.02. 6:10 0
Fr, 03.02. 6:00 0
Fr, 03.02. 5:30 0
Fr, 03.02. 5:00 0
Fr, 03.02. 4:30 0
Fr, 03.02. 4:00 0
Link zu dieser Seite / Seite empfehlen

Das Wetter in ...